sensor_id;sensor_type;location;lat;lon;timestamp;P1;durP1;ratioP1;P2;durP2;ratioP2
67174;SDS011;54110;45.778;4.826;2022-08-18T00:02:10;4.75;;;2.20;;
67174;SDS011;54110;45.778;4.826;2022-08-18T00:04:38;3.15;;;2.28;;
67174;SDS011;54110;45.778;4.826;2022-08-18T00:07:04;3.20;;;2.50;;
67174;SDS011;54110;45.778;4.826;2022-08-18T00:09:32;2.30;;;2.10;;
67174;SDS011;54110;45.778;4.826;2022-08-18T00:11:59;4.30;;;2.53;;
67174;SDS011;54110;45.778;4.826;2022-08-18T00:14:28;2.60;;;2.13;;
67174;SDS011;54110;45.778;4.826;2022-08-18T00:16:53;3.15;;;1.90;;
67174;SDS011;54110;45.778;4.826;2022-08-18T00:19:19;3.15;;;2.13;;
67174;SDS011;54110;45.778;4.826;2022-08-18T00:21:46;4.75;;;2.13;;
67174;SDS011;54110;45.778;4.826;2022-08-18T00:24:11;3.38;;;2.03;;
67174;SDS011;54110;45.778;4.826;2022-08-18T00:26:37;3.50;;;2.30;;
67174;SDS011;54110;45.778;4.826;2022-08-18T00:29:03;2.88;;;2.22;;
67174;SDS011;54110;45.778;4.826;2022-08-18T00:31:30;4.25;;;2.20;;
67174;SDS011;54110;45.778;4.826;2022-08-18T00:33:56;3.55;;;2.13;;
67174;SDS011;54110;45.778;4.826;2022-08-18T00:36:22;2.65;;;2.03;;
67174;SDS011;54110;45.778;4.826;2022-08-18T00:38:47;4.15;;;2.20;;
67174;SDS011;54110;45.778;4.826;2022-08-18T00:41:13;2.60;;;2.33;;
67174;SDS011;54110;45.778;4.826;2022-08-18T00:43:41;2.63;;;2.42;;
67174;SDS011;54110;45.778;4.826;2022-08-18T00:46:11;3.95;;;2.45;;
67174;SDS011;54110;45.778;4.826;2022-08-18T00:48:42;2.92;;;2.22;;
67174;SDS011;54110;45.778;4.826;2022-08-18T00:51:09;2.65;;;2.05;;
67174;SDS011;54110;45.778;4.826;2022-08-18T00:53:39;4.03;;;2.50;;
67174;SDS011;54110;45.778;4.826;2022-08-18T00:56:10;2.22;;;1.77;;
67174;SDS011;54110;45.778;4.826;2022-08-18T00:58:40;2.78;;;2.20;;
67174;SDS011;54110;45.778;4.826;2022-08-18T01:01:10;2.17;;;1.98;;
67174;SDS011;54110;45.778;4.826;2022-08-18T01:03:38;3.05;;;2.38;;
67174;SDS011;54110;45.778;4.826;2022-08-18T01:06:08;2.72;;;2.25;;
67174;SDS011;54110;45.778;4.826;2022-08-18T01:08:38;4.18;;;2.30;;
67174;SDS011;54110;45.778;4.826;2022-08-18T01:11:04;2.67;;;2.22;;
67174;SDS011;54110;45.778;4.826;2022-08-18T01:13:30;2.38;;;2.17;;
67174;SDS011;54110;45.778;4.826;2022-08-18T01:15:57;2.65;;;2.45;;
67174;SDS011;54110;45.778;4.826;2022-08-18T01:18:24;2.80;;;2.03;;
67174;SDS011;54110;45.778;4.826;2022-08-18T01:20:51;3.15;;;2.10;;
67174;SDS011;54110;45.778;4.826;2022-08-18T01:23:23;2.80;;;2.53;;
67174;SDS011;54110;45.778;4.826;2022-08-18T01:25:49;2.90;;;1.98;;
67174;SDS011;54110;45.778;4.826;2022-08-18T01:28:16;4.25;;;2.47;;
67174;SDS011;54110;45.778;4.826;2022-08-18T01:30:46;2.75;;;2.35;;
67174;SDS011;54110;45.778;4.826;2022-08-18T01:33:13;2.20;;;1.95;;
67174;SDS011;54110;45.778;4.826;2022-08-18T01:35:40;2.42;;;2.20;;
67174;SDS011;54110;45.778;4.826;2022-08-18T01:38:09;4.28;;;2.13;;
67174;SDS011;54110;45.778;4.826;2022-08-18T01:40:36;2.80;;;2.13;;
67174;SDS011;54110;45.778;4.826;2022-08-18T01:43:02;2.50;;;2.30;;
67174;SDS011;54110;45.778;4.826;2022-08-18T01:45:28;2.88;;;2.35;;
67174;SDS011;54110;45.778;4.826;2022-08-18T01:47:53;2.47;;;2.00;;
67174;SDS011;54110;45.778;4.826;2022-08-18T01:50:19;2.42;;;2.22;;
67174;SDS011;54110;45.778;4.826;2022-08-18T01:52:45;2.53;;;2.33;;
67174;SDS011;54110;45.778;4.826;2022-08-18T01:55:11;3.38;;;2.40;;
67174;SDS011;54110;45.778;4.826;2022-08-18T01:57:38;2.28;;;2.08;;
67174;SDS011;54110;45.778;4.826;2022-08-18T02:00:04;3.30;;;2.47;;
67174;SDS011;54110;45.778;4.826;2022-08-18T02:02:31;3.05;;;2.33;;
67174;SDS011;54110;45.778;4.826;2022-08-18T02:04:58;5.50;;;2.47;;
67174;SDS011;54110;45.778;4.826;2022-08-18T02:07:26;4.38;;;2.63;;
67174;SDS011;54110;45.778;4.826;2022-08-18T02:09:52;3.47;;;2.45;;
67174;SDS011;54110;45.778;4.826;2022-08-18T02:12:18;3.13;;;2.72;;
67174;SDS011;54110;45.778;4.826;2022-08-18T02:14:45;3.65;;;2.60;;
67174;SDS011;54110;45.778;4.826;2022-08-18T02:17:12;5.10;;;2.55;;
67174;SDS011;54110;45.778;4.826;2022-08-18T02:19:39;2.40;;;2.20;;
67174;SDS011;54110;45.778;4.826;2022-08-18T02:22:07;2.72;;;2.30;;
67174;SDS011;54110;45.778;4.826;2022-08-18T02:24:34;4.38;;;2.47;;
67174;SDS011;54110;45.778;4.826;2022-08-18T02:27:00;2.75;;;2.47;;
67174;SDS011;54110;45.778;4.826;2022-08-18T02:29:26;4.65;;;2.60;;
67174;SDS011;54110;45.778;4.826;2022-08-18T02:31:53;3.65;;;2.42;;
67174;SDS011;54110;45.778;4.826;2022-08-18T02:34:19;4.65;;;2.47;;
67174;SDS011;54110;45.778;4.826;2022-08-18T02:36:45;3.25;;;2.78;;
67174;SDS011;54110;45.778;4.826;2022-08-18T02:39:11;3.30;;;2.70;;
67174;SDS011;54110;45.778;4.826;2022-08-18T02:41:36;3.55;;;2.40;;
67174;SDS011;54110;45.778;4.826;2022-08-18T02:44:02;3.17;;;2.80;;
67174;SDS011;54110;45.778;4.826;2022-08-18T02:46:30;3.42;;;2.70;;
67174;SDS011;54110;45.778;4.826;2022-08-18T02:48:57;7.43;;;2.75;;
67174;SDS011;54110;45.778;4.826;2022-08-18T02:51:23;4.40;;;2.53;;
67174;SDS011;54110;45.778;4.826;2022-08-18T02:53:49;3.85;;;2.50;;
67174;SDS011;54110;45.778;4.826;2022-08-18T02:56:15;3.30;;;2.50;;
67174;SDS011;54110;45.778;4.826;2022-08-18T02:58:45;4.15;;;2.90;;
67174;SDS011;54110;45.778;4.826;2022-08-18T03:01:12;3.25;;;2.58;;
67174;SDS011;54110;45.778;4.826;2022-08-18T03:03:38;3.58;;;2.53;;
67174;SDS011;54110;45.778;4.826;2022-08-18T03:06:05;5.80;;;2.80;;
67174;SDS011;54110;45.778;4.826;2022-08-18T03:08:31;4.50;;;2.92;;
67174;SDS011;54110;45.778;4.826;2022-08-18T03:10:57;5.38;;;2.78;;
67174;SDS011;54110;45.778;4.826;2022-08-18T03:13:23;3.70;;;2.55;;
67174;SDS011;54110;45.778;4.826;2022-08-18T03:15:49;8.27;;;2.70;;
67174;SDS011;54110;45.778;4.826;2022-08-18T03:18:15;6.30;;;2.92;;
67174;SDS011;54110;45.778;4.826;2022-08-18T03:20:41;7.18;;;3.10;;
67174;SDS011;54110;45.778;4.826;2022-08-18T03:23:08;4.57;;;2.88;;
67174;SDS011;54110;45.778;4.826;2022-08-18T03:25:33;3.30;;;2.83;;
67174;SDS011;54110;45.778;4.826;2022-08-18T03:28:01;7.38;;;2.85;;
67174;SDS011;54110;45.778;4.826;2022-08-18T03:30:27;3.17;;;2.72;;
67174;SDS011;54110;45.778;4.826;2022-08-18T03:32:52;7.90;;;3.03;;
67174;SDS011;54110;45.778;4.826;2022-08-18T03:35:18;3.65;;;2.78;;
67174;SDS011;54110;45.778;4.826;2022-08-18T03:37:44;2.90;;;2.60;;
67174;SDS011;54110;45.778;4.826;2022-08-18T03:40:11;3.10;;;2.60;;
67174;SDS011;54110;45.778;4.826;2022-08-18T03:42:37;3.38;;;2.80;;
67174;SDS011;54110;45.778;4.826;2022-08-18T03:45:03;4.72;;;2.90;;
67174;SDS011;54110;45.778;4.826;2022-08-18T03:47:29;4.10;;;3.10;;
67174;SDS011;54110;45.778;4.826;2022-08-18T03:49:55;3.97;;;2.83;;
67174;SDS011;54110;45.778;4.826;2022-08-18T03:52:20;3.53;;;2.80;;
67174;SDS011;54110;45.778;4.826;2022-08-18T03:54:46;4.05;;;3.15;;
67174;SDS011;54110;45.778;4.826;2022-08-18T03:57:13;4.40;;;2.72;;
67174;SDS011;54110;45.778;4.826;2022-08-18T03:59:39;3.05;;;2.47;;
67174;SDS011;54110;45.778;4.826;2022-08-18T04:02:05;3.40;;;2.58;;
67174;SDS011;54110;45.778;4.826;2022-08-18T04:04:31;6.30;;;2.78;;
67174;SDS011;54110;45.778;4.826;2022-08-18T04:06:58;3.88;;;2.90;;
67174;SDS011;54110;45.778;4.826;2022-08-18T04:09:27;3.50;;;2.92;;
67174;SDS011;54110;45.778;4.826;2022-08-18T04:11:54;5.80;;;3.03;;
67174;SDS011;54110;45.778;4.826;2022-08-18T04:14:23;4.43;;;3.33;;
67174;SDS011;54110;45.778;4.826;2022-08-18T04:16:50;3.78;;;2.83;;
67174;SDS011;54110;45.778;4.826;2022-08-18T04:19:16;3.97;;;3.20;;
67174;SDS011;54110;45.778;4.826;2022-08-18T04:21:43;4.05;;;2.95;;
67174;SDS011;54110;45.778;4.826;2022-08-18T04:24:10;3.15;;;2.85;;
67174;SDS011;54110;45.778;4.826;2022-08-18T04:26:38;3.25;;;2.88;;
67174;SDS011;54110;45.778;4.826;2022-08-18T04:29:06;5.60;;;3.45;;
67174;SDS011;54110;45.778;4.826;2022-08-18T04:31:34;3.95;;;3.17;;
67174;SDS011;54110;45.778;4.826;2022-08-18T04:34:00;5.07;;;2.95;;
67174;SDS011;54110;45.778;4.826;2022-08-18T04:36:27;6.53;;;2.90;;
67174;SDS011;54110;45.778;4.826;2022-08-18T04:38:54;3.55;;;3.08;;
67174;SDS011;54110;45.778;4.826;2022-08-18T04:41:20;4.25;;;3.10;;
67174;SDS011;54110;45.778;4.826;2022-08-18T04:43:45;5.47;;;3.05;;
67174;SDS011;54110;45.778;4.826;2022-08-18T04:46:11;3.13;;;2.80;;
67174;SDS011;54110;45.778;4.826;2022-08-18T04:48:39;6.05;;;3.00;;
67174;SDS011;54110;45.778;4.826;2022-08-18T04:51:06;3.13;;;2.58;;
67174;SDS011;54110;45.778;4.826;2022-08-18T04:53:35;3.50;;;2.65;;
67174;SDS011;54110;45.778;4.826;2022-08-18T04:56:02;5.10;;;2.75;;
67174;SDS011;54110;45.778;4.826;2022-08-18T04:58:28;6.22;;;2.83;;
67174;SDS011;54110;45.778;4.826;2022-08-18T05:00:57;3.60;;;3.10;;
67174;SDS011;54110;45.778;4.826;2022-08-18T05:03:24;9.00;;;3.38;;
67174;SDS011;54110;45.778;4.826;2022-08-18T05:05:51;3.08;;;2.65;;
67174;SDS011;54110;45.778;4.826;2022-08-18T05:08:17;3.17;;;2.58;;
67174;SDS011;54110;45.778;4.826;2022-08-18T05:10:43;3.95;;;3.25;;
67174;SDS011;54110;45.778;4.826;2022-08-18T05:13:08;3.17;;;2.78;;
67174;SDS011;54110;45.778;4.826;2022-08-18T05:15:34;6.20;;;3.03;;
67174;SDS011;54110;45.778;4.826;2022-08-18T05:18:00;4.13;;;3.22;;
67174;SDS011;54110;45.778;4.826;2022-08-18T05:20:25;5.13;;;3.20;;
67174;SDS011;54110;45.778;4.826;2022-08-18T05:22:52;5.85;;;2.90;;
67174;SDS011;54110;45.778;4.826;2022-08-18T05:25:18;3.60;;;3.30;;
67174;SDS011;54110;45.778;4.826;2022-08-18T05:27:44;6.07;;;3.05;;
67174;SDS011;54110;45.778;4.826;2022-08-18T05:30:10;6.00;;;3.78;;
67174;SDS011;54110;45.778;4.826;2022-08-18T05:32:38;5.97;;;3.70;;
67174;SDS011;54110;45.778;4.826;2022-08-18T05:35:06;3.95;;;3.00;;
67174;SDS011;54110;45.778;4.826;2022-08-18T05:37:38;5.20;;;3.13;;
67174;SDS011;54110;45.778;4.826;2022-08-18T05:40:17;11.13;;;3.20;;
67174;SDS011;54110;45.778;4.826;2022-08-18T05:42:46;6.40;;;3.30;;
67174;SDS011;54110;45.778;4.826;2022-08-18T05:45:15;6.15;;;3.20;;
67174;SDS011;54110;45.778;4.826;2022-08-18T05:47:42;6.93;;;2.90;;
67174;SDS011;54110;45.778;4.826;2022-08-18T05:50:09;3.67;;;3.30;;
67174;SDS011;54110;45.778;4.826;2022-08-18T05:52:37;6.43;;;3.22;;
67174;SDS011;54110;45.778;4.826;2022-08-18T05:55:08;7.07;;;3.60;;
67174;SDS011;54110;45.778;4.826;2022-08-18T05:57:41;6.93;;;3.15;;
67174;SDS011;54110;45.778;4.826;2022-08-18T06:00:11;3.75;;;3.00;;
67174;SDS011;54110;45.778;4.826;2022-08-18T06:02:38;4.47;;;3.05;;
67174;SDS011;54110;45.778;4.826;2022-08-18T06:05:10;5.03;;;3.00;;
67174;SDS011;54110;45.778;4.826;2022-08-18T06:07:40;11.00;;;3.17;;
67174;SDS011;54110;45.778;4.826;2022-08-18T06:10:08;3.22;;;2.88;;
67174;SDS011;54110;45.778;4.826;2022-08-18T06:12:35;5.38;;;3.08;;
67174;SDS011;54110;45.778;4.826;2022-08-18T06:15:07;6.82;;;3.17;;
67174;SDS011;54110;45.778;4.826;2022-08-18T06:20:50;6.75;;;2.90;;
67174;SDS011;54110;45.778;4.826;2022-08-18T06:23:28;5.47;;;3.00;;
67174;SDS011;54110;45.778;4.826;2022-08-18T06:26:02;5.30;;;3.22;;
67174;SDS011;54110;45.778;4.826;2022-08-18T06:28:42;3.35;;;2.78;;
67174;SDS011;54110;45.778;4.826;2022-08-18T06:31:17;14.88;;;3.60;;
67174;SDS011;54110;45.778;4.826;2022-08-18T06:33:49;4.47;;;2.85;;
67174;SDS011;54110;45.778;4.826;2022-08-18T06:36:28;6.13;;;3.00;;
67174;SDS011;54110;45.778;4.826;2022-08-18T06:39:04;4.03;;;2.65;;
67174;SDS011;54110;45.778;4.826;2022-08-18T06:41:41;5.47;;;3.05;;
67174;SDS011;54110;45.778;4.826;2022-08-18T06:44:10;3.97;;;3.20;;
67174;SDS011;54110;45.778;4.826;2022-08-18T06:46:41;6.75;;;2.65;;
67174;SDS011;54110;45.778;4.826;2022-08-18T06:49:10;4.85;;;2.95;;
67174;SDS011;54110;45.778;4.826;2022-08-18T06:54:24;4.40;;;3.25;;
67174;SDS011;54110;45.778;4.826;2022-08-18T06:56:52;3.38;;;3.08;;
67174;SDS011;54110;45.778;4.826;2022-08-18T06:59:21;4.03;;;3.00;;
67174;SDS011;54110;45.778;4.826;2022-08-18T07:01:51;2.95;;;2.60;;
67174;SDS011;54110;45.778;4.826;2022-08-18T07:04:32;4.35;;;2.78;;
67174;SDS011;54110;45.778;4.826;2022-08-18T07:07:10;5.75;;;2.70;;
67174;SDS011;54110;45.778;4.826;2022-08-18T07:09:38;3.83;;;2.88;;
67174;SDS011;54110;45.778;4.826;2022-08-18T07:12:04;3.97;;;2.97;;
67174;SDS011;54110;45.778;4.826;2022-08-18T07:14:42;3.10;;;2.80;;
67174;SDS011;54110;45.778;4.826;2022-08-18T07:17:10;4.07;;;2.95;;
67174;SDS011;54110;45.778;4.826;2022-08-18T07:19:37;4.07;;;3.10;;
67174;SDS011;54110;45.778;4.826;2022-08-18T07:22:05;3.80;;;2.45;;
67174;SDS011;54110;45.778;4.826;2022-08-18T07:24:34;5.82;;;3.00;;
67174;SDS011;54110;45.778;4.826;2022-08-18T07:27:05;3.53;;;2.58;;
67174;SDS011;54110;45.778;4.826;2022-08-18T07:29:33;3.72;;;2.78;;
67174;SDS011;54110;45.778;4.826;2022-08-18T07:32:03;2.90;;;2.30;;
67174;SDS011;54110;45.778;4.826;2022-08-18T07:34:35;6.03;;;2.78;;
67174;SDS011;54110;45.778;4.826;2022-08-18T07:37:04;3.10;;;2.75;;
67174;SDS011;54110;45.778;4.826;2022-08-18T07:39:35;3.50;;;2.60;;
67174;SDS011;54110;45.778;4.826;2022-08-18T07:42:06;5.55;;;2.78;;
67174;SDS011;54110;45.778;4.826;2022-08-18T07:44:39;4.35;;;2.40;;
67174;SDS011;54110;45.778;4.826;2022-08-18T07:47:14;2.95;;;2.63;;
67174;SDS011;54110;45.778;4.826;2022-08-18T07:49:44;3.55;;;2.50;;
67174;SDS011;54110;45.778;4.826;2022-08-18T07:52:12;4.18;;;2.85;;
67174;SDS011;54110;45.778;4.826;2022-08-18T07:54:47;4.35;;;2.75;;
67174;SDS011;54110;45.778;4.826;2022-08-18T07:57:24;4.50;;;2.78;;
67174;SDS011;54110;45.778;4.826;2022-08-18T07:59:57;3.58;;;2.60;;
67174;SDS011;54110;45.778;4.826;2022-08-18T08:02:33;3.85;;;2.50;;
67174;SDS011;54110;45.778;4.826;2022-08-18T08:05:11;3.60;;;2.60;;
67174;SDS011;54110;45.778;4.826;2022-08-18T08:07:44;3.35;;;2.78;;
67174;SDS011;54110;45.778;4.826;2022-08-18T08:10:26;3.10;;;2.45;;
67174;SDS011;54110;45.778;4.826;2022-08-18T08:12:57;3.25;;;2.40;;
67174;SDS011;54110;45.778;4.826;2022-08-18T08:15:39;4.03;;;2.55;;
67174;SDS011;54110;45.778;4.826;2022-08-18T08:18:14;2.75;;;2.45;;
67174;SDS011;54110;45.778;4.826;2022-08-18T08:20:46;2.83;;;2.30;;
67174;SDS011;54110;45.778;4.826;2022-08-18T08:23:21;4.53;;;2.47;;
67174;SDS011;54110;45.778;4.826;2022-08-18T08:25:55;5.13;;;2.60;;
67174;SDS011;54110;45.778;4.826;2022-08-18T08:28:32;4.10;;;2.63;;
67174;SDS011;54110;45.778;4.826;2022-08-18T08:31:07;3.58;;;2.67;;
67174;SDS011;54110;45.778;4.826;2022-08-18T08:33:39;3.28;;;2.40;;
67174;SDS011;54110;45.778;4.826;2022-08-18T08:36:10;5.80;;;2.80;;
67174;SDS011;54110;45.778;4.826;2022-08-18T08:38:43;3.72;;;2.47;;
67174;SDS011;54110;45.778;4.826;2022-08-18T08:41:12;3.28;;;2.35;;
67174;SDS011;54110;45.778;4.826;2022-08-18T08:43:44;3.03;;;1.90;;
67174;SDS011;54110;45.778;4.826;2022-08-18T08:46:18;5.35;;;2.20;;
67174;SDS011;54110;45.778;4.826;2022-08-18T08:48:48;7.72;;;2.42;;
67174;SDS011;54110;45.778;4.826;2022-08-18T08:51:27;4.45;;;2.40;;
67174;SDS011;54110;45.778;4.826;2022-08-18T08:53:58;5.95;;;2.38;;
67174;SDS011;54110;45.778;4.826;2022-08-18T08:56:30;8.18;;;2.40;;
67174;SDS011;54110;45.778;4.826;2022-08-18T08:59:01;9.68;;;2.80;;
67174;SDS011;54110;45.778;4.826;2022-08-18T09:01:29;5.50;;;2.30;;
67174;SDS011;54110;45.778;4.826;2022-08-18T09:04:04;9.88;;;2.72;;
67174;SDS011;54110;45.778;4.826;2022-08-18T09:06:43;4.22;;;2.03;;
67174;SDS011;54110;45.778;4.826;2022-08-18T09:09:20;4.93;;;1.95;;
67174;SDS011;54110;45.778;4.826;2022-08-18T09:14:45;8.43;;;2.58;;
67174;SDS011;54110;45.778;4.826;2022-08-18T09:17:33;5.38;;;2.25;;
67174;SDS011;54110;45.778;4.826;2022-08-18T09:20:20;3.10;;;2.28;;
67174;SDS011;54110;45.778;4.826;2022-08-18T09:22:57;3.97;;;2.10;;
67174;SDS011;54110;45.778;4.826;2022-08-18T09:25:31;2.42;;;1.63;;
67174;SDS011;54110;45.778;4.826;2022-08-18T09:28:11;3.90;;;2.28;;
67174;SDS011;54110;45.778;4.826;2022-08-18T09:30:40;2.97;;;2.17;;
67174;SDS011;54110;45.778;4.826;2022-08-18T09:33:27;3.15;;;2.25;;
67174;SDS011;54110;45.778;4.826;2022-08-18T09:36:04;4.68;;;2.22;;
67174;SDS011;54110;45.778;4.826;2022-08-18T09:38:46;4.53;;;2.30;;
67174;SDS011;54110;45.778;4.826;2022-08-18T09:41:16;2.33;;;2.00;;
67174;SDS011;54110;45.778;4.826;2022-08-18T09:43:52;7.57;;;2.45;;
67174;SDS011;54110;45.778;4.826;2022-08-18T09:55:34;3.58;;;2.15;;
67174;SDS011;54110;45.778;4.826;2022-08-18T09:58:14;3.17;;;1.98;;
67174;SDS011;54110;45.778;4.826;2022-08-18T10:00:42;2.63;;;2.10;;
67174;SDS011;54110;45.778;4.826;2022-08-18T10:03:13;5.75;;;2.13;;
67174;SDS011;54110;45.778;4.826;2022-08-18T10:06:05;2.80;;;2.10;;
67174;SDS011;54110;45.778;4.826;2022-08-18T10:08:57;2.45;;;2.08;;
67174;SDS011;54110;45.778;4.826;2022-08-18T10:11:36;2.63;;;2.17;;
67174;SDS011;54110;45.778;4.826;2022-08-18T10:14:20;2.22;;;2.03;;
67174;SDS011;54110;45.778;4.826;2022-08-18T10:16:55;2.53;;;1.92;;
67174;SDS011;54110;45.778;4.826;2022-08-18T10:19:28;2.22;;;2.03;;
67174;SDS011;54110;45.778;4.826;2022-08-18T10:22:02;2.85;;;2.17;;
67174;SDS011;54110;45.778;4.826;2022-08-18T10:24:32;2.65;;;1.73;;
67174;SDS011;54110;45.778;4.826;2022-08-18T10:27:02;2.58;;;1.98;;
67174;SDS011;54110;45.778;4.826;2022-08-18T10:32:39;2.88;;;2.10;;
67174;SDS011;54110;45.778;4.826;2022-08-18T10:38:12;3.33;;;2.25;;
67174;SDS011;54110;45.778;4.826;2022-08-18T10:40:39;3.03;;;2.22;;
67174;SDS011;54110;45.778;4.826;2022-08-18T10:43:08;4.97;;;2.55;;
67174;SDS011;54110;45.778;4.826;2022-08-18T10:45:42;2.88;;;2.10;;
67174;SDS011;54110;45.778;4.826;2022-08-18T10:48:11;2.72;;;2.53;;
67174;SDS011;54110;45.778;4.826;2022-08-18T10:50:46;2.22;;;2.00;;
67174;SDS011;54110;45.778;4.826;2022-08-18T10:53:17;3.10;;;2.20;;
67174;SDS011;54110;45.778;4.826;2022-08-18T10:55:51;2.13;;;1.85;;
67174;SDS011;54110;45.778;4.826;2022-08-18T10:58:35;1.97;;;1.70;;
67174;SDS011;54110;45.778;4.826;2022-08-18T11:01:23;6.60;;;2.20;;
67174;SDS011;54110;45.778;4.826;2022-08-18T11:04:04;7.65;;;2.67;;
67174;SDS011;54110;45.778;4.826;2022-08-18T11:06:36;7.05;;;2.50;;
67174;SDS011;54110;45.778;4.826;2022-08-18T11:09:04;3.20;;;2.03;;
67174;SDS011;54110;45.778;4.826;2022-08-18T11:11:30;3.22;;;2.10;;
67174;SDS011;54110;45.778;4.826;2022-08-18T11:14:01;4.47;;;2.42;;
67174;SDS011;54110;45.778;4.826;2022-08-18T11:16:38;5.28;;;2.10;;
67174;SDS011;54110;45.778;4.826;2022-08-18T11:19:13;6.25;;;2.35;;
67174;SDS011;54110;45.778;4.826;2022-08-18T11:21:41;3.55;;;2.08;;
67174;SDS011;54110;45.778;4.826;2022-08-18T11:24:09;4.30;;;2.03;;
67174;SDS011;54110;45.778;4.826;2022-08-18T11:26:38;3.63;;;2.50;;
67174;SDS011;54110;45.778;4.826;2022-08-18T11:29:20;2.85;;;2.17;;
67174;SDS011;54110;45.778;4.826;2022-08-18T11:31:48;3.38;;;2.00;;
67174;SDS011;54110;45.778;4.826;2022-08-18T11:34:17;2.53;;;2.00;;
67174;SDS011;54110;45.778;4.826;2022-08-18T11:36:53;4.55;;;2.20;;
67174;SDS011;54110;45.778;4.826;2022-08-18T11:39:20;2.33;;;2.08;;
67174;SDS011;54110;45.778;4.826;2022-08-18T11:41:46;3.60;;;2.20;;
67174;SDS011;54110;45.778;4.826;2022-08-18T11:44:13;2.95;;;2.08;;
67174;SDS011;54110;45.778;4.826;2022-08-18T11:46:44;2.38;;;2.15;;
67174;SDS011;54110;45.778;4.826;2022-08-18T11:49:15;3.15;;;2.25;;
67174;SDS011;54110;45.778;4.826;2022-08-18T11:51:52;3.28;;;2.28;;
67174;SDS011;54110;45.778;4.826;2022-08-18T11:54:21;3.38;;;1.92;;
67174;SDS011;54110;45.778;4.826;2022-08-18T12:03:16;7.38;;;2.50;;
67174;SDS011;54110;45.778;4.826;2022-08-18T12:05:50;2.33;;;1.98;;
67174;SDS011;54110;45.778;4.826;2022-08-18T12:08:20;2.95;;;1.80;;
67174;SDS011;54110;45.778;4.826;2022-08-18T12:11:00;3.70;;;2.22;;
67174;SDS011;54110;45.778;4.826;2022-08-18T12:13:27;3.33;;;2.10;;
67174;SDS011;54110;45.778;4.826;2022-08-18T12:16:06;3.65;;;2.03;;
67174;SDS011;54110;45.778;4.826;2022-08-18T12:18:39;3.00;;;2.25;;
67174;SDS011;54110;45.778;4.826;2022-08-18T12:21:05;5.15;;;2.22;;
67174;SDS011;54110;45.778;4.826;2022-08-18T12:23:33;2.80;;;1.92;;
67174;SDS011;54110;45.778;4.826;2022-08-18T12:26:00;6.88;;;2.50;;
67174;SDS011;54110;45.778;4.826;2022-08-18T12:28:26;3.33;;;2.15;;
67174;SDS011;54110;45.778;4.826;2022-08-18T12:30:52;2.90;;;2.25;;
67174;SDS011;54110;45.778;4.826;2022-08-18T12:33:18;3.88;;;1.88;;
67174;SDS011;54110;45.778;4.826;2022-08-18T12:35:45;3.00;;;2.00;;
67174;SDS011;54110;45.778;4.826;2022-08-18T12:38:11;3.40;;;1.80;;
67174;SDS011;54110;45.778;4.826;2022-08-18T12:40:37;4.03;;;2.38;;
67174;SDS011;54110;45.778;4.826;2022-08-18T12:43:03;2.65;;;2.20;;
67174;SDS011;54110;45.778;4.826;2022-08-18T12:45:28;2.35;;;2.15;;
67174;SDS011;54110;45.778;4.826;2022-08-18T12:47:54;3.22;;;2.28;;
67174;SDS011;54110;45.778;4.826;2022-08-18T12:50:20;3.55;;;2.50;;
67174;SDS011;54110;45.778;4.826;2022-08-18T12:52:47;2.28;;;2.08;;
67174;SDS011;54110;45.778;4.826;2022-08-18T12:55:13;3.03;;;1.90;;
67174;SDS011;54110;45.778;4.826;2022-08-18T12:57:39;2.58;;;2.00;;
67174;SDS011;54110;45.778;4.826;2022-08-18T13:00:05;2.63;;;2.10;;
67174;SDS011;54110;45.778;4.826;2022-08-18T13:02:32;2.67;;;1.90;;
67174;SDS011;54110;45.778;4.826;2022-08-18T13:04:58;2.00;;;1.70;;
67174;SDS011;54110;45.778;4.826;2022-08-18T13:07:23;6.20;;;2.05;;
67174;SDS011;54110;45.778;4.826;2022-08-18T13:09:50;2.90;;;1.95;;
67174;SDS011;54110;45.778;4.826;2022-08-18T13:12:16;2.83;;;2.30;;
67174;SDS011;54110;45.778;4.826;2022-08-18T13:14:43;7.95;;;1.95;;
67174;SDS011;54110;45.778;4.826;2022-08-18T13:17:09;3.22;;;2.13;;
67174;SDS011;54110;45.778;4.826;2022-08-18T13:19:35;2.42;;;1.90;;
67174;SDS011;54110;45.778;4.826;2022-08-18T13:22:01;3.75;;;2.28;;
67174;SDS011;54110;45.778;4.826;2022-08-18T13:24:27;3.67;;;1.90;;
67174;SDS011;54110;45.778;4.826;2022-08-18T13:26:54;2.85;;;2.00;;
67174;SDS011;54110;45.778;4.826;2022-08-18T13:29:20;2.17;;;1.77;;
67174;SDS011;54110;45.778;4.826;2022-08-18T13:31:46;3.65;;;2.22;;
67174;SDS011;54110;45.778;4.826;2022-08-18T13:34:11;2.55;;;2.10;;
67174;SDS011;54110;45.778;4.826;2022-08-18T13:36:37;2.65;;;1.95;;
67174;SDS011;54110;45.778;4.826;2022-08-18T13:39:03;2.95;;;1.80;;
67174;SDS011;54110;45.778;4.826;2022-08-18T13:41:29;5.80;;;1.98;;
67174;SDS011;54110;45.778;4.826;2022-08-18T13:43:57;4.20;;;1.80;;
67174;SDS011;54110;45.778;4.826;2022-08-18T13:46:23;2.53;;;1.83;;
67174;SDS011;54110;45.778;4.826;2022-08-18T13:48:48;2.13;;;1.85;;
67174;SDS011;54110;45.778;4.826;2022-08-18T13:51:15;3.53;;;2.08;;
67174;SDS011;54110;45.778;4.826;2022-08-18T13:53:46;3.92;;;2.15;;
67174;SDS011;54110;45.778;4.826;2022-08-18T13:56:11;2.20;;;1.90;;
67174;SDS011;54110;45.778;4.826;2022-08-18T13:58:37;2.88;;;1.70;;
67174;SDS011;54110;45.778;4.826;2022-08-18T14:01:05;1.90;;;1.70;;
67174;SDS011;54110;45.778;4.826;2022-08-18T14:03:32;2.13;;;1.70;;
67174;SDS011;54110;45.778;4.826;2022-08-18T14:05:59;2.97;;;1.73;;
67174;SDS011;54110;45.778;4.826;2022-08-18T14:08:24;1.83;;;1.60;;
67174;SDS011;54110;45.778;4.826;2022-08-18T14:10:52;2.65;;;1.70;;
67174;SDS011;54110;45.778;4.826;2022-08-18T14:13:20;2.90;;;1.80;;
67174;SDS011;54110;45.778;4.826;2022-08-18T14:15:47;2.55;;;1.88;;
67174;SDS011;54110;45.778;4.826;2022-08-18T14:18:16;2.10;;;1.70;;
67174;SDS011;54110;45.778;4.826;2022-08-18T14:20:41;3.42;;;1.70;;
67174;SDS011;54110;45.778;4.826;2022-08-18T14:23:07;3.00;;;2.05;;
67174;SDS011;54110;45.778;4.826;2022-08-18T14:25:33;4.45;;;1.80;;
67174;SDS011;54110;45.778;4.826;2022-08-18T14:27:59;3.03;;;1.95;;
67174;SDS011;54110;45.778;4.826;2022-08-18T14:30:25;3.65;;;1.98;;
67174;SDS011;54110;45.778;4.826;2022-08-18T14:32:50;2.60;;;1.75;;
67174;SDS011;54110;45.778;4.826;2022-08-18T14:35:18;6.95;;;1.95;;
67174;SDS011;54110;45.778;4.826;2022-08-18T14:37:43;3.08;;;1.70;;
67174;SDS011;54110;45.778;4.826;2022-08-18T14:40:10;3.65;;;2.00;;
67174;SDS011;54110;45.778;4.826;2022-08-18T14:42:36;3.05;;;1.65;;
67174;SDS011;54110;45.778;4.826;2022-08-18T14:45:02;1.55;;;1.40;;
67174;SDS011;54110;45.778;4.826;2022-08-18T14:47:28;5.22;;;1.85;;
67174;SDS011;54110;45.778;4.826;2022-08-18T14:49:54;3.75;;;1.65;;
67174;SDS011;54110;45.778;4.826;2022-08-18T14:52:21;4.07;;;1.60;;
67174;SDS011;54110;45.778;4.826;2022-08-18T14:54:48;5.07;;;1.88;;
67174;SDS011;54110;45.778;4.826;2022-08-18T14:57:14;7.03;;;2.13;;
67174;SDS011;54110;45.778;4.826;2022-08-18T14:59:40;3.60;;;1.80;;
67174;SDS011;54110;45.778;4.826;2022-08-18T15:02:06;3.20;;;1.88;;
67174;SDS011;54110;45.778;4.826;2022-08-18T15:04:34;3.75;;;1.52;;
67174;SDS011;54110;45.778;4.826;2022-08-18T15:07:00;2.67;;;1.50;;
67174;SDS011;54110;45.778;4.826;2022-08-18T15:09:29;4.13;;;1.70;;
67174;SDS011;54110;45.778;4.826;2022-08-18T15:11:54;2.58;;;1.58;;
67174;SDS011;54110;45.778;4.826;2022-08-18T15:14:21;5.00;;;1.90;;
67174;SDS011;54110;45.778;4.826;2022-08-18T15:16:47;3.47;;;1.60;;
67174;SDS011;54110;45.778;4.826;2022-08-18T15:19:13;2.47;;;1.42;;
67174;SDS011;54110;45.778;4.826;2022-08-18T15:21:38;3.45;;;1.55;;
67174;SDS011;54110;45.778;4.826;2022-08-18T15:24:05;4.03;;;1.90;;
67174;SDS011;54110;45.778;4.826;2022-08-18T15:26:32;1.60;;;1.40;;
67174;SDS011;54110;45.778;4.826;2022-08-18T15:28:58;2.47;;;1.60;;
67174;SDS011;54110;45.778;4.826;2022-08-18T15:31:24;2.45;;;1.60;;